Time;durP1;ratioP1;P1;durP2;ratioP2;P2;SDS_P1;SDS_P2;PMS_P1;PMS_P2;Temp;Humidity;BMP_temperature;BMP_pressure;BME280_temperature;BME280_humidity;BME280_pressure;Samples;Min_cycle;Max_cycle;Signal;HPM_P1;HPM_P2
2021/05/03 00:00:19;;;;;;;17.92;11.40;;;;;;;15.73;93.13;98555.61;1852854;77;21491;-62
2021/05/03 00:02:47;;;;;;;20.12;11.75;;;;;;;15.73;93.11;98553.67;1821912;77;21149;-62
2021/05/03 00:05:24;;;;;;;16.20;11.15;;;;;;;15.75;93.09;98558.23;1822013;77;21219;-62
2021/05/03 00:07:52;;;;;;;21.35;12.23;;;;;;;15.77;93.06;98563.36;1839326;77;21229;-62
2021/05/03 00:10:20;;;;;;;15.20;12.37;;;;;;;15.82;93.08;98561.88;1827943;77;21328;-62
2021/05/03 00:12:48;;;;;;;13.62;12.23;;;;;;;15.85;92.86;98554.45;1792742;78;21141;-62
2021/05/03 00:15:17;;;;;;;14.98;12.15;;;;;;;15.85;92.70;98547.13;1819376;78;21177;-62
2021/05/03 00:17:45;;;;;;;16.62;12.88;;;;;;;15.84;92.66;98547.42;1829976;77;22620;-61
2021/05/03 00:20:15;;;;;;;16.95;12.07;;;;;;;15.84;92.68;98550.14;1812758;79;21040;-62
2021/05/03 00:22:46;;;;;;;15.53;11.68;;;;;;;15.84;92.78;98542.81;1841237;77;21003;-62
2021/05/03 00:25:15;;;;;;;20.82;15.08;;;;;;;15.84;92.76;98550.14;1816724;77;21737;-61
2021/05/03 00:27:44;;;;;;;17.62;14.45;;;;;;;15.82;92.88;98556.45;1822764;78;21118;-62
2021/05/03 00:30:15;;;;;;;21.40;12.68;;;;;;;15.79;93.02;98548.92;1780789;79;21139;-63
2021/05/03 00:32:44;;;;;;;16.07;12.40;;;;;;;15.77;93.17;98555.22;1780807;79;21601;-62
2021/05/03 00:35:15;;;;;;;26.07;12.80;;;;;;;15.76;93.47;98559.04;1787012;78;21141;-65
2021/05/03 00:37:43;;;;;;;17.70;11.78;;;;;;;15.72;93.77;98562.94;1786708;79;21117;-61
2021/05/03 00:40:11;;;;;;;15.93;11.97;;;;;;;15.72;93.94;98568.91;1796628;79;21538;-63
2021/05/03 00:42:42;;;;;;;15.70;11.95;;;;;;;15.70;93.95;98560.53;1765450;79;21145;-63
2021/05/03 00:45:13;;;;;;;14.98;10.30;;;;;;;15.70;94.04;98557.81;1817905;78;21038;-62
2021/05/03 00:50:24;;;;;;;14.75;12.18;;;;;;;15.71;94.09;98559.97;1829861;78;21526;-62
2021/05/03 00:52:51;;;;;;;17.37;12.60;;;;;;;15.70;93.99;98561.88;1801246;78;21025;-63
2021/05/03 00:55:21;;;;;;;20.90;12.18;;;;;;;15.69;93.90;98554.85;1790743;78;22045;-60
2021/05/03 00:57:51;;;;;;;11.40;10.05;;;;;;;15.67;93.89;98546.25;1772007;79;21091;-61
2021/05/03 01:00:19;;;;;;;14.78;11.18;;;;;;;15.68;93.81;98563.31;1800770;78;21132;-63
2021/05/03 01:02:46;;;;;;;20.02;11.95;;;;;;;15.68;93.64;98570.09;1852030;75;21582;-62
2021/05/03 01:05:14;;;;;;;16.30;12.00;;;;;;;15.67;93.43;98574.71;1856485;75;21160;-61
2021/05/03 01:07:42;;;;;;;12.82;10.58;;;;;;;15.67;93.25;98567.13;1893363;75;22069;-62
2021/05/03 01:10:12;;;;;;;14.50;10.05;;;;;;;15.64;93.05;98572.60;1866913;75;21523;-62
2021/05/03 01:12:39;;;;;;;16.87;10.55;;;;;;;15.62;93.01;98567.26;1801933;78;21562;-63
2021/05/03 01:15:09;;;;;;;17.87;10.28;;;;;;;15.60;92.98;98573.53;1844546;76;20991;-62
2021/05/03 01:17:39;;;;;;;13.95;10.80;;;;;;;15.59;92.96;98575.99;1849904;75;21523;-62
2021/05/03 01:20:12;;;;;;;22.10;12.65;;;;;;;15.60;92.74;98575.69;1834223;78;22609;-61
2021/05/03 01:22:39;;;;;;;10.30;8.15;;;;;;;15.59;92.54;98570.57;1834296;76;21630;-61
2021/05/03 01:25:09;;;;;;;10.78;8.10;;;;;;;15.58;92.25;98575.77;1841114;77;21117;-61
2021/05/03 01:27:37;;;;;;;15.08;9.43;;;;;;;15.55;92.10;98567.69;1802298;76;21034;-61
2021/05/03 01:30:07;;;;;;;8.28;7.50;;;;;;;15.54;91.65;98570.14;1840370;76;21164;-61
2021/05/03 01:32:34;;;;;;;18.07;9.65;;;;;;;15.54;90.82;98571.50;1834941;76;21219;-62
2021/05/03 01:35:05;;;;;;;12.60;10.25;;;;;;;15.54;90.43;98578.86;1866441;76;21220;-61
2021/05/03 01:37:33;;;;;;;14.50;9.70;;;;;;;15.53;90.29;98573.19;1867501;75;21589;-62
2021/05/03 01:40:01;;;;;;;13.38;8.38;;;;;;;15.52;90.10;98577.80;1866625;76;21122;-61
2021/05/03 01:42:30;;;;;;;10.20;7.90;;;;;;;15.50;89.88;98579.98;1866710;76;21157;-64
2021/05/03 01:44:59;;;;;;;9.20;7.78;;;;;;;15.48;89.61;98583.56;1866077;76;21362;-61
2021/05/03 01:47:27;;;;;;;14.50;8.90;;;;;;;15.46;89.27;98572.23;1877433;75;20992;-62
2021/05/03 01:49:55;;;;;;;9.33;7.47;;;;;;;15.45;88.88;98578.74;1859138;76;20974;-62
2021/05/03 01:52:23;;;;;;;7.92;7.17;;;;;;;15.41;87.73;98586.45;1866578;76;21101;-61
2021/05/03 01:54:52;;;;;;;9.25;6.45;;;;;;;15.37;87.12;98583.56;1873731;75;21093;-63
2021/05/03 01:57:21;;;;;;;12.82;7.97;;;;;;;15.34;86.32;98580.67;1901835;75;21989;-61
2021/05/03 01:59:52;;;;;;;8.75;7.83;;;;;;;15.30;85.45;98583.75;1898981;75;21094;-61
2021/05/03 02:02:19;;;;;;;12.65;8.00;;;;;;;15.29;85.57;98592.44;1856591;76;21130;-62
2021/05/03 02:04:48;;;;;;;8.38;7.12;;;;;;;15.26;85.30;98586.25;1841363;77;21129;-61
2021/05/03 02:07:16;;;;;;;8.15;5.95;;;;;;;15.22;84.96;98593.40;1876057;76;21141;-61
2021/05/03 02:09:45;;;;;;;7.25;6.55;;;;;;;15.17;83.84;98580.78;1889955;75;22446;-63
2021/05/03 02:12:13;;;;;;;6.75;6.15;;;;;;;15.19;83.65;98584.55;1810418;78;21574;-62
2021/05/03 02:14:41;;;;;;;7.72;6.80;;;;;;;15.17;82.35;98583.48;1842883;76;20958;-61
2021/05/03 02:17:10;;;;;;;6.97;6.08;;;;;;;15.12;80.41;98585.51;1867161;76;21097;-63
2021/05/03 02:19:39;;;;;;;5.78;5.15;;;;;;;15.06;79.68;98584.82;1859165;76;21169;-62
2021/05/03 02:22:07;;;;;;;5.70;4.62;;;;;;;14.94;78.93;98583.77;1873914;76;21183;-63
2021/05/03 02:24:34;;;;;;;5.22;4.28;;;;;;;14.86;78.32;98584.50;1852292;77;21109;-63
2021/05/03 02:27:04;;;;;;;5.45;4.95;;;;;;;14.78;78.02;98588.16;1848243;76;21019;-62
2021/05/03 02:29:32;;;;;;;8.18;4.10;;;;;;;14.73;76.72;98595.03;1894926;75;21152;-62
2021/05/03 02:32:01;;;;;;;5.80;4.37;;;;;;;14.69;75.22;98598.10;1897233;75;21568;-63
2021/05/03 02:34:29;;;;;;;4.25;3.80;;;;;;;14.61;73.42;98602.08;1893038;75;21194;-62
2021/05/03 02:36:58;;;;;;;4.08;3.77;;;;;;;14.55;72.55;98603.28;1880349;76;21141;-63
2021/05/03 02:39:26;;;;;;;3.92;3.40;;;;;;;14.49;72.64;98595.81;1858482;76;21172;-62
2021/05/03 02:41:54;;;;;;;6.12;3.67;;;;;;;14.44;72.59;98605.38;1837821;78;21219;-62
2021/05/03 02:44:22;;;;;;;9.70;3.22;;;;;;;14.37;72.28;98603.10;1838188;77;21081;-62
2021/05/03 02:46:50;;;;;;;5.15;3.42;;;;;;;14.30;71.54;98614.02;1870429;76;21198;-62
2021/05/03 02:49:18;;;;;;;5.95;3.40;;;;;;;14.18;70.08;98624.55;1857165;76;21110;-63
2021/05/03 02:51:46;;;;;;;2.12;1.92;;;;;;;14.07;69.82;98621.22;1886088;76;21010;-62
2021/05/03 02:54:14;;;;;;;3.30;2.83;;;;;;;13.95;65.79;98647.41;1886089;75;21133;-61
2021/05/03 02:56:42;;;;;;;3.10;2.80;;;;;;;13.87;65.18;98631.04;1886023;75;21153;-61
2021/05/03 02:59:09;;;;;;;2.45;2.25;;;;;;;13.80;65.33;98640.91;1871644;76;21183;-63
2021/05/03 03:01:37;;;;;;;2.50;2.30;;;;;;;13.73;65.89;98645.88;1842403;77;21205;-62
2021/05/03 03:04:05;;;;;;;3.22;2.37;;;;;;;13.68;66.40;98651.91;1832825;78;21542;-62
2021/05/03 03:06:32;;;;;;;3.08;2.83;;;;;;;13.61;66.12;98661.76;1822767;78;21144;-61
2021/05/03 03:09:01;;;;;;;2.37;2.12;;;;;;;13.53;66.39;98650.25;1853407;76;21101;-62
2021/05/03 03:11:29;;;;;;;3.80;2.02;;;;;;;13.44;66.11;98681.18;1866725;76;21264;-60
2021/05/03 03:13:57;;;;;;;5.45;2.67;;;;;;;13.34;66.21;98654.87;1866747;76;21160;-61
2021/05/03 03:16:26;;;;;;;2.35;2.15;;;;;;;13.27;66.54;98662.00;1858796;76;20958;-61
2021/05/03 03:18:55;;;;;;;6.22;2.12;;;;;;;13.22;66.46;98674.77;1812534;78;21180;-62
2021/05/03 03:21:24;;;;;;;3.08;1.77;;;;;;;13.10;64.84;98696.21;1800646;79;21156;-61
2021/05/03 03:23:52;;;;;;;2.33;2.20;;;;;;;13.02;65.00;98713.06;1856980;76;21129;-62
2021/05/03 03:26:20;;;;;;;3.62;2.42;;;;;;;12.93;63.75;98705.89;1881916;76;21457;-63
2021/05/03 03:28:50;;;;;;;2.50;2.22;;;;;;;12.77;62.61;98698.52;1874632;75;21150;-61
2021/05/03 03:31:18;;;;;;;3.80;2.27;;;;;;;12.61;62.75;98710.03;1840231;76;21106;-63
2021/05/03 03:33:46;;;;;;;4.58;2.27;;;;;;;12.42;62.82;98714.55;1866995;76;21117;-62
2021/05/03 03:36:14;;;;;;;2.25;2.08;;;;;;;12.30;63.33;98733.56;1867050;76;22552;-61
2021/05/03 03:38:43;;;;;;;2.30;2.12;;;;;;;12.15;63.81;98726.42;1852476;75;21027;-62
2021/05/03 03:41:13;;;;;;;2.58;2.15;;;;;;;12.03;64.32;98730.05;1885999;76;21153;-62
2021/05/03 03:43:40;;;;;;;2.65;2.27;;;;;;;11.90;64.56;98736.05;1897449;75;21209;-61
2021/05/03 03:46:08;;;;;;;2.45;2.27;;;;;;;11.79;65.12;98756.36;1873698;75;21121;-61
2021/05/03 03:48:36;;;;;;;3.95;2.30;;;;;;;11.73;65.39;98736.47;1861624;75;21149;-61
2021/05/03 03:51:05;;;;;;;2.45;2.20;;;;;;;11.63;65.48;98736.50;1887786;76;21595;-62
2021/05/03 03:53:33;;;;;;;6.03;2.35;;;;;;;11.54;65.78;98744.37;1862714;76;21142;-62
2021/05/03 03:56:01;;;;;;;2.95;2.20;;;;;;;11.43;66.06;98784.55;1887900;75;21090;-62
2021/05/03 03:58:28;;;;;;;3.05;2.67;;;;;;;11.33;66.57;98757.14;1866112;76;21559;-61
2021/05/03 04:00:56;;;;;;;3.17;2.40;;;;;;;11.23;66.39;98776.03;1857090;76;21153;-60
2021/05/03 04:03:25;;;;;;;3.67;2.77;;;;;;;11.10;66.82;98792.78;1899222;75;21164;-62
2021/05/03 04:08:33;;;;;;;5.25;2.90;;;;;;;10.93;67.38;98776.95;1905349;75;21090;-62
2021/05/03 04:11:14;;;;;;;4.03;3.17;;;;;;;10.83;67.39;98795.84;1871012;75;21152;-62
2021/05/03 04:24:27;;;;;;;2.17;1.98;;;;;;;10.42;68.38;98833.26;1872527;75;21089;-62
2021/05/03 04:26:55;;;;;;;5.42;2.40;;;;;;;10.40;68.49;98826.83;1866749;76;21113;-62
2021/05/03 04:29:24;;;;;;;2.58;2.37;;;;;;;10.37;68.52;98839.44;1885334;75;21137;-60
2021/05/03 04:31:52;;;;;;;2.60;2.02;;;;;;;10.35;68.70;98832.20;1891264;75;21058;-62
2021/05/03 04:34:20;;;;;;;4.03;2.92;;;;;;;10.35;68.86;98834.89;1835965;77;21642;-61
2021/05/03 04:36:49;;;;;;;2.98;2.58;;;;;;;10.37;68.59;98856.10;1868129;76;21140;-62
2021/05/03 04:39:17;;;;;;;2.55;2.35;;;;;;;10.36;68.35;98838.39;1878625;75;22657;-62
2021/05/03 04:41:44;;;;;;;2.95;2.30;;;;;;;10.33;68.04;98869.28;1890023;75;20972;-62
2021/05/03 04:44:12;;;;;;;5.80;2.20;;;;;;;10.31;68.12;98829.76;1869585;75;21079;-66
2021/05/03 04:46:41;;;;;;;4.25;2.65;;;;;;;10.32;67.96;98868.20;1896112;75;21252;-62
2021/05/03 04:49:08;;;;;;;2.77;2.20;;;;;;;10.31;67.88;98856.63;1882880;75;21133;-62
2021/05/03 04:51:37;;;;;;;3.65;2.40;;;;;;;10.31;67.91;98853.95;1835199;76;21156;-62
2021/05/03 04:54:04;;;;;;;1.90;1.80;;;;;;;10.32;67.85;98856.91;1866507;76;21092;-63
2021/05/03 04:56:32;;;;;;;2.77;1.85;;;;;;;10.34;67.93;98863.37;1835066;76;21146;-63
2021/05/03 04:59:00;;;;;;;2.67;2.20;;;;;;;10.35;67.50;98875.74;1883104;75;21097;-65
2021/05/03 05:01:29;;;;;;;2.00;1.60;;;;;;;10.36;67.17;98857.98;1901844;75;21127;-62
2021/05/03 05:03:57;;;;;;;4.03;1.90;;;;;;;10.35;67.40;98844.30;1877097;75;21610;-62
2021/05/03 05:06:26;;;;;;;2.20;1.77;;;;;;;10.39;67.53;98849.94;1872906;75;21112;-62
2021/05/03 05:08:53;;;;;;;2.90;1.82;;;;;;;10.41;67.01;98845.08;1850913;76;21527;-64
2021/05/03 05:11:21;;;;;;;3.77;1.90;;;;;;;10.42;66.96;98869.01;1837782;76;21136;-61
2021/05/03 05:13:50;;;;;;;3.00;1.80;;;;;;;10.44;66.85;98867.41;1872968;76;21116;-62
2021/05/03 05:16:18;;;;;;;3.85;1.80;;;;;;;10.47;66.53;98872.23;1873059;75;22611;-62
2021/05/03 05:18:48;;;;;;;4.58;2.00;;;;;;;10.52;66.58;98871.42;1826952;76;21583;-62
2021/05/03 05:21:15;;;;;;;1.87;1.30;;;;;;;10.55;66.32;98864.19;1855302;76;21129;-63
2021/05/03 05:23:44;;;;;;;1.82;1.67;;;;;;;10.59;66.22;98862.03;1848526;76;21121;-62
2021/05/03 05:26:11;;;;;;;1.92;1.70;;;;;;;10.63;65.75;98857.72;1866998;76;21145;-62
2021/05/03 05:28:39;;;;;;;3.20;1.67;;;;;;;10.68;65.81;98856.38;1843829;76;21978;-62
2021/05/03 05:31:07;;;;;;;1.70;1.10;;;;;;;10.72;65.41;98857.44;1842030;76;20998;-61
2021/05/03 05:33:37;;;;;;;2.25;1.50;;;;;;;10.77;65.15;98866.84;1872977;76;21089;-64
2021/05/03 05:36:06;;;;;;;5.20;1.55;;;;;;;10.80;64.27;98889.69;1867144;76;21554;-62
2021/05/03 05:38:35;;;;;;;2.00;1.85;;;;;;;10.79;63.86;98877.34;1872995;76;21117;-63
2021/05/03 05:41:05;;;;;;;1.77;1.57;;;;;;;10.80;63.74;98839.94;1867123;76;21249;-62
2021/05/03 05:43:32;;;;;;;2.22;2.02;;;;;;;10.82;63.55;98881.63;1867044;76;21152;-65
2021/05/03 05:46:01;;;;;;;2.17;1.32;;;;;;;10.85;63.62;98870.86;1862136;75;20990;-62
2021/05/03 05:48:29;;;;;;;2.20;1.32;;;;;;;10.88;63.60;98864.95;1864808;77;21150;-62
2021/05/03 05:50:57;;;;;;;1.50;1.40;;;;;;;10.94;63.46;98869.23;1841921;77;21207;-62
2021/05/03 05:53:24;;;;;;;1.62;1.40;;;;;;;10.98;63.22;98914.71;1866451;76;21252;-63
2021/05/03 05:55:52;;;;;;;1.10;1.00;;;;;;;11.01;62.41;98871.64;1872513;76;21112;-63
2021/05/03 05:58:21;;;;;;;1.55;1.25;;;;;;;11.02;62.30;98874.61;1872902;76;21014;-64
2021/05/03 06:00:49;;;;;;;1.37;1.27;;;;;;;11.00;62.26;98869.49;1842425;76;21610;-65
2021/05/03 06:03:17;;;;;;;2.22;1.37;;;;;;;11.02;62.39;98861.16;1890015;75;21685;-65
2021/05/03 06:05:45;;;;;;;4.00;1.50;;;;;;;11.04;62.38;98858.45;1887151;75;21182;-65
2021/05/03 06:08:13;;;;;;;1.60;1.10;;;;;;;11.06;62.19;98885.90;1874552;75;21582;-64
2021/05/03 06:10:42;;;;;;;1.27;1.17;;;;;;;11.09;62.27;98893.95;1798446;78;21153;-63
2021/05/03 06:13:10;;;;;;;1.10;1.10;;;;;;;11.11;62.28;98911.45;1834392;78;21085;-63
2021/05/03 06:15:38;;;;;;;1.00;1.00;;;;;;;11.15;61.88;98908.48;1873376;75;21093;-64
2021/05/03 06:18:06;;;;;;;2.05;1.42;;;;;;;11.18;61.73;98892.31;1902028;75;22487;-62
2021/05/03 06:20:34;;;;;;;3.33;1.22;;;;;;;11.20;61.68;98909.01;1870914;75;21153;-63
2021/05/03 06:23:04;;;;;;;1.30;1.20;;;;;;;11.20;61.69;98883.44;1900616;75;21133;-62
2021/05/03 06:25:33;;;;;;;1.00;1.00;;;;;;;11.20;61.60;98906.31;1887789;75;21249;-63
2021/05/03 06:28:04;;;;;;;1.55;1.45;;;;;;;11.20;61.75;98895.02;1847419;76;21169;-63
2021/05/03 06:30:34;;;;;;;2.33;1.27;;;;;;;11.23;61.55;98907.91;1866864;76;21174;-60
2021/05/03 06:33:03;;;;;;;2.35;1.55;;;;;;;11.24;61.29;98908.19;1866806;76;21198;-63
2021/05/03 06:35:32;;;;;;;1.35;1.20;;;;;;;11.27;61.14;98935.89;1877367;75;21070;-63
2021/05/03 06:38:00;;;;;;;1.90;1.20;;;;;;;11.31;61.20;98922.18;1877195;75;21129;-63
2021/05/03 06:40:29;;;;;;;3.83;1.40;;;;;;;11.35;61.04;98940.73;1864929;75;21102;-64
2021/05/03 06:42:58;;;;;;;1.52;1.30;;;;;;;11.39;61.29;98919.45;1813682;77;2166233;-63
2021/05/03 06:45:30;;;;;;;3.95;1.60;;;;;;;11.45;61.21;98925.09;1832962;78;21144;-62
2021/05/03 06:47:57;;;;;;;1.30;1.20;;;;;;;11.52;61.30;98919.41;1845627;76;21169;-63
2021/05/03 06:50:25;;;;;;;1.35;1.25;;;;;;;11.60;60.82;98914.81;1848766;77;21519;-62
2021/05/03 06:52:54;;;;;;;1.55;1.35;;;;;;;11.65;60.27;98924.23;1837198;77;21617;-63
2021/05/03 06:55:22;;;;;;;1.35;1.25;;;;;;;11.67;59.84;98935.52;1808297;78;22079;-64
2021/05/03 06:57:50;;;;;;;2.15;1.17;;;;;;;11.69;59.55;98928.78;1856039;77;21152;-63
2021/05/03 07:00:19;;;;;;;4.33;1.12;;;;;;;11.73;59.67;98916.94;1856189;77;21163;-62
2021/05/03 07:02:48;;;;;;;1.40;1.30;;;;;;;11.76;59.59;98932.54;1834961;77;21262;-62
2021/05/03 07:05:15;;;;;;;1.20;1.10;;;;;;;11.80;58.64;98937.64;1856147;77;21165;-63
2021/05/03 07:07:44;;;;;;;2.85;1.50;;;;;;;11.82;58.88;98937.38;1835147;78;21385;-63
2021/05/03 07:10:13;;;;;;;1.20;1.10;;;;;;;11.84;59.15;98946.81;1834869;78;21129;-64
2021/05/03 07:12:44;;;;;;;2.98;1.45;;;;;;;11.88;58.82;98938.44;1856195;77;21156;-63
2021/05/03 07:15:13;;;;;;;3.42;1.40;;;;;;;11.90;58.38;98996.88;1835061;78;21108;-63
2021/05/03 07:17:43;;;;;;;1.82;1.27;;;;;;;11.88;57.81;98964.03;1835169;78;21148;-63
2021/05/03 07:20:14;;;;;;;3.05;1.05;;;;;;;11.82;57.26;98956.23;1834819;78;21319;-64
2021/05/03 07:22:43;;;;;;;4.20;1.10;;;;;;;11.78;56.80;98988.31;1835167;78;21097;-64
2021/05/03 07:25:12;;;;;;;2.50;1.50;;;;;;;11.76;56.93;99002.05;1835230;78;21538;-63
2021/05/03 07:27:40;;;;;;;3.55;1.10;;;;;;;11.75;56.73;98970.80;1835191;78;21527;-64
2021/05/03 07:30:12;;;;;;;1.65;1.02;;;;;;;11.78;57.09;98964.87;1835128;78;21124;-64
2021/05/03 07:32:40;;;;;;;2.62;1.10;;;;;;;11.81;56.63;98960.81;1835215;78;22290;-65
2021/05/03 07:35:10;;;;;;;1.62;1.10;;;;;;;11.83;56.81;98972.13;1835053;78;21002;-63
2021/05/03 07:37:38;;;;;;;1.60;1.50;;;;;;;11.84;56.37;98972.41;1835035;78;21093;-63
2021/05/03 07:40:09;;;;;;;1.57;1.02;;;;;;;11.84;56.56;98973.75;1835115;78;21188;-62
2021/05/03 07:42:37;;;;;;;1.32;1.02;;;;;;;11.86;55.88;98982.34;1835166;78;21165;-63
2021/05/03 07:45:09;;;;;;;0.88;0.88;;;;;;;11.86;56.55;98982.89;1834991;78;22122;-63
2021/05/03 07:47:37;;;;;;;1.47;1.00;;;;;;;11.88;56.50;99001.75;1835118;78;21132;-64
2021/05/03 07:50:07;;;;;;;2.58;1.12;;;;;;;11.88;56.26;98969.42;1835120;78;21184;-63
2021/05/03 07:52:35;;;;;;;2.35;2.00;;;;;;;11.89;56.29;98994.48;1835003;78;21049;-61
2021/05/03 07:55:06;;;;;;;5.25;1.20;;;;;;;11.91;56.15;98989.60;1856033;77;21150;-63
2021/05/03 07:57:34;;;;;;;1.52;1.37;;;;;;;11.95;56.46;98963.71;1835054;78;21177;-63
2021/05/03 08:00:04;;;;;;;4.80;1.40;;;;;;;12.04;56.41;98971.48;1835023;78;21151;-62
2021/05/03 08:02:32;;;;;;;3.20;1.20;;;;;;;12.15;56.45;98981.95;1835149;78;21116;-63
2021/05/03 08:05:01;;;;;;;1.60;1.40;;;;;;;12.27;56.13;98973.55;1802744;77;21007;-64
2021/05/03 08:07:30;;;;;;;2.15;0.90;;;;;;;12.35;56.18;98957.31;1791999;80;21157;-63
2021/05/03 08:09:58;;;;;;;4.33;1.02;;;;;;;12.45;55.32;99021.44;1774946;79;21602;-63
2021/05/03 08:12:25;;;;;;;3.67;1.32;;;;;;;12.52;55.20;98996.84;1792044;80;21161;-62
2021/05/03 08:14:53;;;;;;;1.40;1.10;;;;;;;12.55;54.90;98983.62;1799932;79;21363;-61
2021/05/03 08:17:21;;;;;;;1.20;1.10;;;;;;;12.54;54.08;99004.13;1799971;79;21218;-62
2021/05/03 08:19:49;;;;;;;1.90;1.20;;;;;;;12.49;54.00;98988.77;1775000;79;21025;-66
2021/05/03 08:22:18;;;;;;;6.40;1.17;;;;;;;12.40;53.92;98988.30;1800043;79;22274;-63
2021/05/03 08:24:46;;;;;;;1.02;0.93;;;;;;;12.35;54.34;99017.44;1792147;80;21137;-63
2021/05/03 08:27:14;;;;;;;1.05;1.00;;;;;;;12.34;54.22;99015.02;1775189;79;21172;-63
2021/05/03 08:29:43;;;;;;;0.95;0.90;;;;;;;12.31;54.30;99016.92;1767026;80;21159;-64
2021/05/03 08:32:12;;;;;;;1.32;1.00;;;;;;;12.26;54.39;99049.30;1800005;79;21180;-63
2021/05/03 08:34:40;;;;;;;1.25;1.00;;;;;;;12.19;54.57;99016.70;1800043;79;21398;-63
2021/05/03 08:37:08;;;;;;;2.52;1.30;;;;;;;12.16;54.50;99014.58;1792150;80;21145;-62
2021/05/03 08:39:36;;;;;;;3.25;1.10;;;;;;;12.15;54.63;99008.09;1770238;81;21196;-62
2021/05/03 08:42:07;;;;;;;2.83;1.20;;;;;;;12.19;54.69;99045.55;1795164;80;21141;-63
2021/05/03 08:44:35;;;;;;;2.83;1.17;;;;;;;12.18;54.23;99033.95;1800110;79;21541;-63
2021/05/03 08:47:03;;;;;;;1.32;1.10;;;;;;;12.14;54.68;99002.44;1792207;80;22231;-63
2021/05/03 08:54:46;;;;;;;2.05;1.15;;;;;;;12.34;55.31;99006.39;1846984;76;22550;-64
2021/05/03 08:57:14;;;;;;;1.85;1.30;;;;;;;12.39;54.89;98990.19;1817272;79;20967;-63
2021/05/03 08:59:43;;;;;;;1.22;1.12;;;;;;;12.44;54.97;99044.62;1817238;79;21198;-63
2021/05/03 09:02:13;;;;;;;1.52;1.27;;;;;;;12.43;54.62;99051.10;1785234;79;21137;-63
2021/05/03 09:04:42;;;;;;;2.72;1.55;;;;;;;12.41;54.87;99020.39;1816903;79;20983;-64
2021/05/03 09:07:13;;;;;;;0.93;0.93;;;;;;;12.40;54.97;99005.82;1785476;79;21145;-63
2021/05/03 09:09:48;;;;;;;2.25;1.52;;;;;;;12.37;55.30;99020.68;1817289;79;21149;-62
2021/05/03 09:12:23;;;;;;;1.52;1.42;;;;;;;12.44;54.88;99044.62;1817250;78;21191;-64
2021/05/03 09:15:00;;;;;;;1.22;1.07;;;;;;;12.44;54.44;99028.45;1817208;78;21606;-64
2021/05/03 09:17:37;;;;;;;2.72;1.70;;;;;;;12.36;54.62;98999.38;1815904;79;21063;-63
2021/05/03 09:20:16;;;;;;;1.98;1.40;;;;;;;12.36;54.97;99033.09;1817126;78;21066;-62
2021/05/03 09:22:57;;;;;;;1.85;1.75;;;;;;;12.37;54.93;99057.63;1786208;79;21119;-63
2021/05/03 09:25:34;;;;;;;1.30;1.20;;;;;;;12.29;54.35;99031.22;1784983;80;21344;-64
2021/05/03 09:28:14;;;;;;;1.52;1.42;;;;;;;12.22;54.95;99031.00;1752906;80;21177;-64
2021/05/03 09:31:00;;;;;;;1.47;1.37;;;;;;;12.15;54.68;99094.36;1785042;80;21046;-63
2021/05/03 09:33:38;;;;;;;2.05;1.15;;;;;;;12.07;54.97;99042.38;1785008;80;21156;-64
2021/05/03 09:36:14;;;;;;;1.70;1.60;;;;;;;12.07;55.09;99059.89;1784981;79;21110;-64
2021/05/03 09:38:45;;;;;;;1.32;1.22;;;;;;;12.14;54.71;99028.85;1785145;80;21318;-63
2021/05/03 09:41:27;;;;;;;2.98;1.25;;;;;;;12.19;54.61;99011.84;1785006;80;21161;-64
2021/05/03 09:44:07;;;;;;;1.33;1.23;;;;;;;12.30;54.79;99008.57;1785231;80;20983;-64
2021/05/03 09:46:46;;;;;;;2.05;1.42;;;;;;;12.44;54.15;99012.27;1785149;80;21609;-62
2021/05/03 09:49:16;;;;;;;1.65;1.20;;;;;;;12.53;53.97;99019.50;1785157;80;21114;-63
2021/05/03 09:51:53;;;;;;;3.08;1.40;;;;;;;12.58;54.07;99005.98;1784951;80;21205;-64
2021/05/03 09:54:29;;;;;;;1.72;1.37;;;;;;;12.64;54.15;99015.66;1752880;80;21216;-62
2021/05/03 09:57:05;;;;;;;1.32;1.22;;;;;;;12.61;52.89;99034.30;1784994;80;21157;-63
2021/05/03 09:59:39;;;;;;;4.10;1.20;;;;;;;12.51;53.09;99038.41;1785063;80;21152;-62
2021/05/03 10:02:29;;;;;;;1.20;1.17;;;;;;;12.40;53.54;99047.08;1785047;80;21595;-61
2021/05/03 10:07:37;;;;;;;1.65;1.40;;;;;;;12.32;53.63;99047.67;1753786;80;21166;-64
2021/05/03 10:10:14;;;;;;;1.85;1.70;;;;;;;12.25;53.74;99052.54;1784466;80;21011;-63
2021/05/03 10:12:39;;;;;;;1.40;1.30;;;;;;;12.21;53.80;99070.35;1784132;80;21622;-63
2021/05/03 10:15:14;;;;;;;2.00;1.20;;;;;;;12.24;54.26;99054.97;1784371;80;21137;-62
2021/05/03 10:17:43;;;;;;;1.50;1.40;;;;;;;12.38;53.96;99063.26;1784729;80;23879;-62
2021/05/03 10:20:16;;;;;;;1.30;1.20;;;;;;;12.49;53.70;99069.69;1752208;79;21161;-62
2021/05/03 10:22:49;;;;;;;2.77;1.50;;;;;;;12.55;53.02;99081.27;1784554;80;21101;-64
2021/05/03 10:25:17;;;;;;;1.75;1.40;;;;;;;12.50;53.12;99082.09;1753027;80;21117;-63
2021/05/03 10:27:48;;;;;;;1.77;1.30;;;;;;;12.38;52.99;99118.00;1752428;80;21074;-62
2021/05/03 10:30:18;;;;;;;1.50;1.40;;;;;;;12.34;52.77;99108.05;1752757;80;21170;-64
2021/05/03 10:33:09;;;;;;;1.50;1.40;;;;;;;12.33;53.00;99083.50;1784369;80;21129;-63
2021/05/03 10:35:46;;;;;;;2.65;1.42;;;;;;;12.38;52.57;99092.38;1753363;80;21156;-62
2021/05/03 10:38:39;;;;;;;1.45;1.35;;;;;;;12.48;52.29;99101.78;1753845;80;21114;-64
2021/05/03 10:41:28;;;;;;;2.42;1.75;;;;;;;12.58;52.18;99090.14;1784275;80;21070;-64
2021/05/03 10:44:21;;;;;;;2.37;1.40;;;;;;;12.64;51.43;99088.50;1784393;80;21538;-65
2021/05/03 10:49:21;;;;;;;1.75;1.65;;;;;;;12.76;50.72;99063.08;1784365;80;21159;-64
2021/05/03 10:51:53;;;;;;;2.77;1.40;;;;;;;12.77;51.10;99066.83;1753607;80;21006;-62
2021/05/03 10:54:34;;;;;;;1.90;1.70;;;;;;;12.83;51.36;99100.80;1792404;79;21133;-63
2021/05/03 10:57:03;;;;;;;2.42;1.50;;;;;;;12.73;50.45;99106.26;1771879;79;21220;-63
2021/05/03 10:59:55;;;;;;;1.62;1.50;;;;;;;12.68;51.20;99073.36;1798447;79;21132;-62
2021/05/03 11:02:25;;;;;;;3.12;1.40;;;;;;;12.71;51.41;99082.78;1798778;79;20998;-64
2021/05/03 11:05:22;;;;;;;1.75;1.30;;;;;;;12.77;51.42;99118.10;1798958;79;21117;-63
2021/05/03 11:08:11;;;;;;;3.75;1.60;;;;;;;12.80;50.31;99095.17;1798793;79;21161;-63
2021/05/03 11:11:08;;;;;;;3.65;1.75;;;;;;;12.76;50.47;99121.88;1798855;79;22187;-62
2021/05/03 11:13:49;;;;;;;1.72;1.30;;;;;;;12.72;50.30;99138.36;1798820;79;21184;-63
2021/05/03 11:16:32;;;;;;;1.50;1.40;;;;;;;12.77;50.23;99120.80;1798819;79;21136;-62
2021/05/03 11:19:25;;;;;;;1.17;1.10;;;;;;;12.88;50.16;99102.13;1771670;79;20974;-67
2021/05/03 11:21:53;;;;;;;3.95;1.65;;;;;;;12.97;49.74;99122.58;1786456;78;21101;-65
2021/05/03 11:24:28;;;;;;;3.92;1.42;;;;;;;12.96;49.70;99127.70;1753748;79;22555;-67
2021/05/03 11:29:39;;;;;;;2.92;2.35;;;;;;;12.97;49.31;99132.03;1847009;76;22652;-63
2021/05/03 11:32:01;;;;;;;6.00;1.95;;;;;;;12.88;49.99;99112.92;1783734;79;20975;-66
2021/05/03 11:34:39;;;;;;;1.62;1.52;;;;;;;12.94;49.76;99086.71;1785358;79;21224;-65
2021/05/03 11:37:15;;;;;;;2.52;1.30;;;;;;;13.01;49.31;99100.69;1761106;79;21587;-67
2021/05/03 11:39:50;;;;;;;4.40;1.60;;;;;;;13.04;49.49;99109.59;1803388;79;20995;-68
2021/05/03 11:42:29;;;;;;;3.80;1.50;;;;;;;13.14;49.56;99089.85;1753687;80;21685;-67
2021/05/03 11:44:57;;;;;;;1.80;1.40;;;;;;;13.14;48.55;99145.98;1781343;80;21624;-68
2021/05/03 11:47:31;;;;;;;1.47;1.35;;;;;;;13.07;48.46;99130.08;1754619;80;21215;-65
2021/05/03 11:49:59;;;;;;;1.62;1.30;;;;;;;13.10;48.89;99096.30;1785038;80;21547;-63
2021/05/03 11:52:35;;;;;;;2.65;1.70;;;;;;;13.18;48.50;99117.36;1784910;80;20979;-64
2021/05/03 11:55:13;;;;;;;1.98;1.77;;;;;;;13.24;48.24;99101.36;1785020;80;21042;-64
2021/05/03 11:57:44;;;;;;;1.80;1.70;;;;;;;13.28;47.87;99107.03;1785053;80;21582;-64
2021/05/03 12:00:34;;;;;;;2.20;2.00;;;;;;;13.27;47.85;99139.16;1784739;80;21465;-72
2021/05/03 12:03:07;;;;;;;2.40;2.20;;;;;;;13.31;47.58;99128.06;1771183;81;21552;-65
2021/05/03 12:05:35;;;;;;;2.55;1.72;;;;;;;13.36;47.47;99124.78;1771219;80;21115;-66
2021/05/03 12:08:15;;;;;;;1.70;1.60;;;;;;;13.42;47.43;99095.30;1770961;81;21179;-67
2021/05/03 12:10:43;;;;;;;4.05;1.70;;;;;;;13.45;47.38;99086.63;1740538;81;21143;-64
2021/05/03 12:13:15;;;;;;;10.53;2.35;;;;;;;13.47;46.60;99096.61;1740327;81;21169;-64
2021/05/03 12:15:43;;;;;;;2.33;1.90;;;;;;;13.41;46.98;99115.30;1740678;81;21169;-68